KSEP/SEP METAR and TAF weather

Enter ICAO airport designator
Station Type Date Time Source
KSEP METAR 2019/12/05 23:15 UTC NOAA

KSEP 052315Z AUTO 16003KT 10SM SCT110 24/05 A2988 RMK AO2 T02380046


Station Type Date Time Source
KSEP Decoded METAR 2019/12/05 23:15 UTC NOAA

Stephenville, Clark Field Municipal Airport, TX, United States (KSEP) 32-13N 098-11W 402M
Dec 05, 2019 - 06:15 PM EST / 2019.12.05 2315 UTC
Wind: from the SSE (160 degrees) at 3 MPH (3 KT):0
Visibility: 10 mile(s):0
Sky conditions: partly cloudy
Temperature: 74.8 F (23.8 C)
Dew Point: 40.3 F (4.6 C)
Relative Humidity: 28%
Pressure (altimeter): 29.88 in. Hg (1011 hPa)
ob: KSEP 052315Z AUTO 16003KT 10SM SCT110 24/05 A2988 RMK AO2 T02380046
cycle: 23

Station Type Date Time Source
KSEP TAF UTC NOAA

Error!

Example: see airport list